sensor_id;sensor_type;location;lat;lon;timestamp;P1;durP1;ratioP1;P2;durP2;ratioP2
8909;SDS011;4490;49.072;8.804;2022-08-05T00:01:50;6.70;;;2.80;;
8909;SDS011;4490;49.072;8.804;2022-08-05T00:04:16;3.08;;;2.83;;
8909;SDS011;4490;49.072;8.804;2022-08-05T00:06:41;2.90;;;2.70;;
8909;SDS011;4490;49.072;8.804;2022-08-05T00:09:07;3.08;;;2.72;;
8909;SDS011;4490;49.072;8.804;2022-08-05T00:11:33;3.08;;;2.80;;
8909;SDS011;4490;49.072;8.804;2022-08-05T00:13:58;3.08;;;2.80;;
8909;SDS011;4490;49.072;8.804;2022-08-05T00:16:24;3.38;;;3.08;;
8909;SDS011;4490;49.072;8.804;2022-08-05T00:18:50;4.53;;;2.95;;
8909;SDS011;4490;49.072;8.804;2022-08-05T00:21:16;5.70;;;3.25;;
8909;SDS011;4490;49.072;8.804;2022-08-05T00:23:43;3.42;;;3.15;;
8909;SDS011;4490;49.072;8.804;2022-08-05T00:26:10;3.10;;;2.70;;
8909;SDS011;4490;49.072;8.804;2022-08-05T00:28:36;4.55;;;2.78;;
8909;SDS011;4490;49.072;8.804;2022-08-05T00:31:02;3.40;;;2.95;;
8909;SDS011;4490;49.072;8.804;2022-08-05T00:33:29;5.18;;;2.78;;
8909;SDS011;4490;49.072;8.804;2022-08-05T00:35:55;4.50;;;2.72;;
8909;SDS011;4490;49.072;8.804;2022-08-05T00:38:20;5.93;;;2.53;;
8909;SDS011;4490;49.072;8.804;2022-08-05T00:40:51;4.03;;;2.90;;
8909;SDS011;4490;49.072;8.804;2022-08-05T00:43:18;5.40;;;3.00;;
8909;SDS011;4490;49.072;8.804;2022-08-05T00:45:45;4.72;;;3.00;;
8909;SDS011;4490;49.072;8.804;2022-08-05T00:48:12;3.85;;;2.95;;
8909;SDS011;4490;49.072;8.804;2022-08-05T00:50:40;4.95;;;2.85;;
8909;SDS011;4490;49.072;8.804;2022-08-05T00:53:08;3.75;;;2.80;;
8909;SDS011;4490;49.072;8.804;2022-08-05T00:55:34;7.40;;;3.00;;
8909;SDS011;4490;49.072;8.804;2022-08-05T00:58:00;5.53;;;2.70;;
8909;SDS011;4490;49.072;8.804;2022-08-05T01:00:26;5.28;;;2.95;;
8909;SDS011;4490;49.072;8.804;2022-08-05T01:02:52;3.53;;;2.83;;
8909;SDS011;4490;49.072;8.804;2022-08-05T01:05:18;5.97;;;2.85;;
8909;SDS011;4490;49.072;8.804;2022-08-05T01:07:44;9.27;;;3.08;;
8909;SDS011;4490;49.072;8.804;2022-08-05T01:10:09;7.32;;;3.10;;
8909;SDS011;4490;49.072;8.804;2022-08-05T01:12:39;5.13;;;3.10;;
8909;SDS011;4490;49.072;8.804;2022-08-05T01:15:11;11.25;;;3.33;;
8909;SDS011;4490;49.072;8.804;2022-08-05T01:17:39;7.03;;;3.33;;
8909;SDS011;4490;49.072;8.804;2022-08-05T01:28:26;8.85;;;3.20;;
8909;SDS011;4490;49.072;8.804;2022-08-05T01:31:31;8.38;;;3.05;;
8909;SDS011;4490;49.072;8.804;2022-08-05T01:34:02;9.77;;;3.20;;
8909;SDS011;4490;49.072;8.804;2022-08-05T01:36:33;8.07;;;3.60;;
8909;SDS011;4490;49.072;8.804;2022-08-05T01:39:04;4.78;;;3.63;;
8909;SDS011;4490;49.072;8.804;2022-08-05T01:41:32;5.82;;;3.22;;
8909;SDS011;4490;49.072;8.804;2022-08-05T01:43:59;5.15;;;3.38;;
8909;SDS011;4490;49.072;8.804;2022-08-05T01:46:26;5.78;;;3.35;;
8909;SDS011;4490;49.072;8.804;2022-08-05T01:48:54;7.85;;;3.63;;
8909;SDS011;4490;49.072;8.804;2022-08-05T01:51:22;6.95;;;3.83;;
8909;SDS011;4490;49.072;8.804;2022-08-05T01:53:50;9.13;;;3.42;;
8909;SDS011;4490;49.072;8.804;2022-08-05T01:56:16;5.88;;;3.60;;
8909;SDS011;4490;49.072;8.804;2022-08-05T01:58:44;6.95;;;3.65;;
8909;SDS011;4490;49.072;8.804;2022-08-05T02:01:13;9.95;;;4.25;;
8909;SDS011;4490;49.072;8.804;2022-08-05T02:03:40;8.23;;;3.88;;
8909;SDS011;4490;49.072;8.804;2022-08-05T02:06:10;10.20;;;4.00;;
8909;SDS011;4490;49.072;8.804;2022-08-05T02:08:36;7.10;;;4.00;;
8909;SDS011;4490;49.072;8.804;2022-08-05T02:11:09;5.55;;;3.97;;
8909;SDS011;4490;49.072;8.804;2022-08-05T02:13:39;8.32;;;3.92;;
8909;SDS011;4490;49.072;8.804;2022-08-05T02:16:13;9.77;;;4.15;;
8909;SDS011;4490;49.072;8.804;2022-08-05T02:19:04;8.70;;;4.03;;
8909;SDS011;4490;49.072;8.804;2022-08-05T02:21:43;9.02;;;4.07;;
8909;SDS011;4490;49.072;8.804;2022-08-05T02:24:16;11.52;;;3.83;;
8909;SDS011;4490;49.072;8.804;2022-08-05T02:26:48;8.38;;;4.35;;
8909;SDS011;4490;49.072;8.804;2022-08-05T02:29:18;9.07;;;4.05;;
8909;SDS011;4490;49.072;8.804;2022-08-05T02:31:46;13.13;;;4.25;;
8909;SDS011;4490;49.072;8.804;2022-08-05T02:34:14;8.45;;;4.13;;
8909;SDS011;4490;49.072;8.804;2022-08-05T02:36:42;7.07;;;3.92;;
8909;SDS011;4490;49.072;8.804;2022-08-05T02:39:14;6.72;;;4.00;;
8909;SDS011;4490;49.072;8.804;2022-08-05T02:41:42;9.98;;;4.07;;
8909;SDS011;4490;49.072;8.804;2022-08-05T02:44:09;7.13;;;4.03;;
8909;SDS011;4490;49.072;8.804;2022-08-05T02:46:37;7.07;;;3.63;;
8909;SDS011;4490;49.072;8.804;2022-08-05T02:49:04;7.07;;;3.95;;
8909;SDS011;4490;49.072;8.804;2022-08-05T02:51:32;8.57;;;3.97;;
8909;SDS011;4490;49.072;8.804;2022-08-05T02:54:01;10.18;;;3.88;;
8909;SDS011;4490;49.072;8.804;2022-08-05T02:56:27;9.75;;;3.90;;
8909;SDS011;4490;49.072;8.804;2022-08-05T02:58:53;6.10;;;3.63;;
8909;SDS011;4490;49.072;8.804;2022-08-05T03:01:22;7.05;;;3.75;;
8909;SDS011;4490;49.072;8.804;2022-08-05T03:03:49;12.00;;;3.88;;
8909;SDS011;4490;49.072;8.804;2022-08-05T03:06:19;7.53;;;4.05;;
8909;SDS011;4490;49.072;8.804;2022-08-05T03:08:46;8.73;;;3.90;;
8909;SDS011;4490;49.072;8.804;2022-08-05T03:11:24;8.18;;;3.97;;
8909;SDS011;4490;49.072;8.804;2022-08-05T03:13:51;10.32;;;3.75;;
8909;SDS011;4490;49.072;8.804;2022-08-05T03:16:18;8.45;;;4.10;;
8909;SDS011;4490;49.072;8.804;2022-08-05T03:18:44;6.60;;;4.93;;
8909;SDS011;4490;49.072;8.804;2022-08-05T03:21:10;9.93;;;4.32;;
8909;SDS011;4490;49.072;8.804;2022-08-05T03:23:40;6.90;;;4.40;;
8909;SDS011;4490;49.072;8.804;2022-08-05T03:26:07;7.60;;;3.95;;
8909;SDS011;4490;49.072;8.804;2022-08-05T03:28:34;11.60;;;4.70;;
8909;SDS011;4490;49.072;8.804;2022-08-05T03:31:01;6.75;;;4.03;;
8909;SDS011;4490;49.072;8.804;2022-08-05T03:33:28;9.82;;;4.65;;
8909;SDS011;4490;49.072;8.804;2022-08-05T03:35:55;8.85;;;4.07;;
8909;SDS011;4490;49.072;8.804;2022-08-05T03:38:22;5.43;;;4.18;;
8909;SDS011;4490;49.072;8.804;2022-08-05T03:40:48;10.57;;;4.28;;
8909;SDS011;4490;49.072;8.804;2022-08-05T03:43:15;7.35;;;4.38;;
8909;SDS011;4490;49.072;8.804;2022-08-05T03:45:41;6.55;;;4.45;;
8909;SDS011;4490;49.072;8.804;2022-08-05T03:48:07;7.30;;;4.07;;
8909;SDS011;4490;49.072;8.804;2022-08-05T03:50:43;7.22;;;4.28;;
8909;SDS011;4490;49.072;8.804;2022-08-05T03:53:37;5.47;;;4.18;;
8909;SDS011;4490;49.072;8.804;2022-08-05T03:56:14;5.95;;;4.07;;
8909;SDS011;4490;49.072;8.804;2022-08-05T03:58:48;5.88;;;3.63;;
8909;SDS011;4490;49.072;8.804;2022-08-05T04:01:17;8.90;;;4.68;;
8909;SDS011;4490;49.072;8.804;2022-08-05T04:03:45;8.40;;;5.05;;
8909;SDS011;4490;49.072;8.804;2022-08-05T04:06:12;7.80;;;4.93;;
8909;SDS011;4490;49.072;8.804;2022-08-05T04:08:39;12.10;;;5.65;;
8909;SDS011;4490;49.072;8.804;2022-08-05T04:11:06;9.70;;;4.53;;
8909;SDS011;4490;49.072;8.804;2022-08-05T04:13:32;9.52;;;5.10;;
8909;SDS011;4490;49.072;8.804;2022-08-05T04:15:58;7.65;;;4.97;;
8909;SDS011;4490;49.072;8.804;2022-08-05T04:18:24;8.73;;;4.97;;
8909;SDS011;4490;49.072;8.804;2022-08-05T04:20:56;9.40;;;5.20;;
8909;SDS011;4490;49.072;8.804;2022-08-05T04:23:23;5.50;;;5.00;;
8909;SDS011;4490;49.072;8.804;2022-08-05T04:25:50;10.15;;;5.43;;
8909;SDS011;4490;49.072;8.804;2022-08-05T04:28:16;10.85;;;5.40;;
8909;SDS011;4490;49.072;8.804;2022-08-05T04:30:42;7.15;;;4.60;;
8909;SDS011;4490;49.072;8.804;2022-08-05T04:33:08;7.63;;;4.80;;
8909;SDS011;4490;49.072;8.804;2022-08-05T04:35:34;7.70;;;5.00;;
8909;SDS011;4490;49.072;8.804;2022-08-05T04:37:59;9.30;;;4.57;;
8909;SDS011;4490;49.072;8.804;2022-08-05T04:40:25;7.25;;;4.97;;
8909;SDS011;4490;49.072;8.804;2022-08-05T04:42:50;8.02;;;4.80;;
8909;SDS011;4490;49.072;8.804;2022-08-05T04:45:16;8.10;;;5.25;;
8909;SDS011;4490;49.072;8.804;2022-08-05T04:47:41;5.95;;;5.10;;
8909;SDS011;4490;49.072;8.804;2022-08-05T04:50:07;10.60;;;5.47;;
8909;SDS011;4490;49.072;8.804;2022-08-05T04:52:33;8.75;;;5.57;;
8909;SDS011;4490;49.072;8.804;2022-08-05T04:54:59;10.48;;;4.95;;
8909;SDS011;4490;49.072;8.804;2022-08-05T04:57:24;7.32;;;5.28;;
8909;SDS011;4490;49.072;8.804;2022-08-05T04:59:50;9.43;;;5.35;;
8909;SDS011;4490;49.072;8.804;2022-08-05T05:02:16;6.45;;;4.97;;
8909;SDS011;4490;49.072;8.804;2022-08-05T05:04:41;10.23;;;5.30;;
8909;SDS011;4490;49.072;8.804;2022-08-05T05:07:07;11.32;;;6.13;;
8909;SDS011;4490;49.072;8.804;2022-08-05T05:09:33;9.98;;;5.68;;
8909;SDS011;4490;49.072;8.804;2022-08-05T05:11:58;13.00;;;5.68;;
8909;SDS011;4490;49.072;8.804;2022-08-05T05:14:25;6.47;;;5.35;;
8909;SDS011;4490;49.072;8.804;2022-08-05T05:16:51;14.07;;;5.88;;
8909;SDS011;4490;49.072;8.804;2022-08-05T05:19:16;8.38;;;5.82;;
8909;SDS011;4490;49.072;8.804;2022-08-05T05:21:42;9.27;;;5.22;;
8909;SDS011;4490;49.072;8.804;2022-08-05T05:24:08;6.72;;;5.70;;
8909;SDS011;4490;49.072;8.804;2022-08-05T05:26:33;8.85;;;5.80;;
8909;SDS011;4490;49.072;8.804;2022-08-05T05:28:59;10.30;;;5.53;;
8909;SDS011;4490;49.072;8.804;2022-08-05T05:31:25;7.05;;;5.57;;
8909;SDS011;4490;49.072;8.804;2022-08-05T05:33:51;8.60;;;5.90;;
8909;SDS011;4490;49.072;8.804;2022-08-05T05:36:17;8.65;;;5.70;;
8909;SDS011;4490;49.072;8.804;2022-08-05T05:38:42;8.77;;;5.28;;
8909;SDS011;4490;49.072;8.804;2022-08-05T05:41:08;7.35;;;5.75;;
8909;SDS011;4490;49.072;8.804;2022-08-05T05:43:33;9.50;;;5.50;;
8909;SDS011;4490;49.072;8.804;2022-08-05T05:45:59;8.20;;;5.47;;
8909;SDS011;4490;49.072;8.804;2022-08-05T05:48:25;8.00;;;4.88;;
8909;SDS011;4490;49.072;8.804;2022-08-05T05:50:50;5.95;;;4.68;;
8909;SDS011;4490;49.072;8.804;2022-08-05T05:53:16;5.65;;;5.10;;
8909;SDS011;4490;49.072;8.804;2022-08-05T05:55:42;6.25;;;4.90;;
8909;SDS011;4490;49.072;8.804;2022-08-05T05:58:08;8.48;;;4.72;;
8909;SDS011;4490;49.072;8.804;2022-08-05T06:00:33;7.43;;;5.78;;
8909;SDS011;4490;49.072;8.804;2022-08-05T06:02:59;9.15;;;5.22;;
8909;SDS011;4490;49.072;8.804;2022-08-05T06:05:27;7.05;;;4.97;;
8909;SDS011;4490;49.072;8.804;2022-08-05T06:07:52;9.60;;;5.30;;
8909;SDS011;4490;49.072;8.804;2022-08-05T06:10:18;6.30;;;5.03;;
8909;SDS011;4490;49.072;8.804;2022-08-05T06:12:44;6.25;;;4.70;;
8909;SDS011;4490;49.072;8.804;2022-08-05T06:15:09;7.55;;;5.32;;
8909;SDS011;4490;49.072;8.804;2022-08-05T06:17:35;10.05;;;5.43;;
8909;SDS011;4490;49.072;8.804;2022-08-05T06:20:01;8.65;;;5.13;;
8909;SDS011;4490;49.072;8.804;2022-08-05T06:22:29;9.32;;;5.35;;
8909;SDS011;4490;49.072;8.804;2022-08-05T06:24:59;6.70;;;5.35;;
8909;SDS011;4490;49.072;8.804;2022-08-05T06:27:25;6.63;;;5.15;;
8909;SDS011;4490;49.072;8.804;2022-08-05T06:29:51;6.07;;;5.20;;
8909;SDS011;4490;49.072;8.804;2022-08-05T06:32:17;5.90;;;5.15;;
8909;SDS011;4490;49.072;8.804;2022-08-05T06:34:42;6.82;;;4.70;;
8909;SDS011;4490;49.072;8.804;2022-08-05T06:37:08;8.02;;;4.80;;
8909;SDS011;4490;49.072;8.804;2022-08-05T06:39:35;5.22;;;4.78;;
8909;SDS011;4490;49.072;8.804;2022-08-05T06:42:03;8.20;;;5.18;;
8909;SDS011;4490;49.072;8.804;2022-08-05T06:44:29;6.05;;;5.18;;
8909;SDS011;4490;49.072;8.804;2022-08-05T06:46:55;6.60;;;5.20;;
8909;SDS011;4490;49.072;8.804;2022-08-05T06:49:21;6.03;;;4.88;;
8909;SDS011;4490;49.072;8.804;2022-08-05T06:51:47;7.35;;;5.35;;
8909;SDS011;4490;49.072;8.804;2022-08-05T06:54:13;7.38;;;5.20;;
8909;SDS011;4490;49.072;8.804;2022-08-05T06:56:39;8.18;;;5.03;;
8909;SDS011;4490;49.072;8.804;2022-08-05T06:59:04;6.95;;;5.28;;
8909;SDS011;4490;49.072;8.804;2022-08-05T07:01:30;7.40;;;4.93;;
8909;SDS011;4490;49.072;8.804;2022-08-05T07:03:56;5.88;;;4.68;;
8909;SDS011;4490;49.072;8.804;2022-08-05T07:06:22;6.10;;;4.28;;
8909;SDS011;4490;49.072;8.804;2022-08-05T07:08:47;8.68;;;4.63;;
8909;SDS011;4490;49.072;8.804;2022-08-05T07:11:13;6.18;;;5.00;;
8909;SDS011;4490;49.072;8.804;2022-08-05T07:13:39;7.78;;;4.50;;
8909;SDS011;4490;49.072;8.804;2022-08-05T07:16:23;5.35;;;4.30;;
8909;SDS011;4490;49.072;8.804;2022-08-05T07:19:07;7.50;;;4.60;;
8909;SDS011;4490;49.072;8.804;2022-08-05T07:21:33;5.53;;;4.25;;
8909;SDS011;4490;49.072;8.804;2022-08-05T07:23:58;5.63;;;4.07;;
8909;SDS011;4490;49.072;8.804;2022-08-05T07:26:24;5.63;;;4.38;;
8909;SDS011;4490;49.072;8.804;2022-08-05T07:28:50;6.28;;;3.80;;
8909;SDS011;4490;49.072;8.804;2022-08-05T07:31:16;7.00;;;4.00;;
8909;SDS011;4490;49.072;8.804;2022-08-05T07:33:41;6.63;;;4.20;;
8909;SDS011;4490;49.072;8.804;2022-08-05T07:36:07;6.78;;;4.32;;
8909;SDS011;4490;49.072;8.804;2022-08-05T07:38:34;4.78;;;4.25;;
8909;SDS011;4490;49.072;8.804;2022-08-05T07:41:04;6.43;;;4.32;;
8909;SDS011;4490;49.072;8.804;2022-08-05T07:43:31;7.65;;;4.13;;
8909;SDS011;4490;49.072;8.804;2022-08-05T07:45:57;7.25;;;4.57;;
8909;SDS011;4490;49.072;8.804;2022-08-05T07:48:23;5.43;;;4.47;;
8909;SDS011;4490;49.072;8.804;2022-08-05T07:50:49;6.38;;;4.45;;
8909;SDS011;4490;49.072;8.804;2022-08-05T07:53:15;4.45;;;4.05;;
8909;SDS011;4490;49.072;8.804;2022-08-05T07:55:40;6.22;;;4.70;;
8909;SDS011;4490;49.072;8.804;2022-08-05T07:58:06;6.30;;;4.53;;
8909;SDS011;4490;49.072;8.804;2022-08-05T08:00:32;6.95;;;3.80;;
8909;SDS011;4490;49.072;8.804;2022-08-05T08:02:57;6.13;;;4.28;;
8909;SDS011;4490;49.072;8.804;2022-08-05T08:05:23;4.65;;;4.07;;
8909;SDS011;4490;49.072;8.804;2022-08-05T08:07:50;7.30;;;3.80;;
8909;SDS011;4490;49.072;8.804;2022-08-05T08:10:16;4.38;;;3.45;;
8909;SDS011;4490;49.072;8.804;2022-08-05T08:12:42;6.45;;;3.50;;
8909;SDS011;4490;49.072;8.804;2022-08-05T08:15:08;6.43;;;3.42;;
8909;SDS011;4490;49.072;8.804;2022-08-05T08:17:34;6.35;;;3.47;;
8909;SDS011;4490;49.072;8.804;2022-08-05T08:20:00;4.85;;;3.38;;
8909;SDS011;4490;49.072;8.804;2022-08-05T08:22:28;4.75;;;3.08;;
8909;SDS011;4490;49.072;8.804;2022-08-05T08:24:54;5.60;;;3.60;;
8909;SDS011;4490;49.072;8.804;2022-08-05T08:27:19;5.20;;;3.15;;
8909;SDS011;4490;49.072;8.804;2022-08-05T08:29:46;6.47;;;2.95;;
8909;SDS011;4490;49.072;8.804;2022-08-05T08:32:12;5.15;;;3.30;;
8909;SDS011;4490;49.072;8.804;2022-08-05T08:34:38;3.90;;;3.08;;
8909;SDS011;4490;49.072;8.804;2022-08-05T08:37:03;5.05;;;3.17;;
8909;SDS011;4490;49.072;8.804;2022-08-05T08:39:29;4.88;;;2.40;;
8909;SDS011;4490;49.072;8.804;2022-08-05T08:41:54;2.65;;;2.45;;
8909;SDS011;4490;49.072;8.804;2022-08-05T08:44:22;3.42;;;2.30;;
8909;SDS011;4490;49.072;8.804;2022-08-05T08:46:49;2.38;;;2.10;;
8909;SDS011;4490;49.072;8.804;2022-08-05T08:49:18;3.13;;;2.13;;
8909;SDS011;4490;49.072;8.804;2022-08-05T08:51:47;2.78;;;2.22;;
8909;SDS011;4490;49.072;8.804;2022-08-05T08:54:18;3.80;;;2.47;;
8909;SDS011;4490;49.072;8.804;2022-08-05T08:56:43;2.80;;;2.28;;
8909;SDS011;4490;49.072;8.804;2022-08-05T08:59:10;2.67;;;2.10;;
8909;SDS011;4490;49.072;8.804;2022-08-05T09:01:36;2.95;;;2.20;;
8909;SDS011;4490;49.072;8.804;2022-08-05T09:04:02;3.10;;;2.20;;
8909;SDS011;4490;49.072;8.804;2022-08-05T09:06:28;5.55;;;2.30;;
8909;SDS011;4490;49.072;8.804;2022-08-05T09:08:55;3.67;;;2.30;;
8909;SDS011;4490;49.072;8.804;2022-08-05T09:11:23;2.25;;;2.05;;
8909;SDS011;4490;49.072;8.804;2022-08-05T09:13:49;3.03;;;2.15;;
8909;SDS011;4490;49.072;8.804;2022-08-05T09:16:15;3.08;;;2.08;;
8909;SDS011;4490;49.072;8.804;2022-08-05T09:18:41;2.30;;;2.10;;
8909;SDS011;4490;49.072;8.804;2022-08-05T09:21:08;2.42;;;2.22;;
8909;SDS011;4490;49.072;8.804;2022-08-05T09:23:34;2.30;;;2.00;;
8909;SDS011;4490;49.072;8.804;2022-08-05T09:26:13;3.28;;;2.42;;
8909;SDS011;4490;49.072;8.804;2022-08-05T09:28:45;2.50;;;2.00;;
8909;SDS011;4490;49.072;8.804;2022-08-05T09:31:12;2.28;;;2.00;;
8909;SDS011;4490;49.072;8.804;2022-08-05T09:33:49;2.20;;;2.10;;
8909;SDS011;4490;49.072;8.804;2022-08-05T09:36:20;3.60;;;2.45;;
8909;SDS011;4490;49.072;8.804;2022-08-05T09:39:02;2.28;;;2.17;;
8909;SDS011;4490;49.072;8.804;2022-08-05T09:41:30;4.90;;;2.30;;
8909;SDS011;4490;49.072;8.804;2022-08-05T09:43:56;3.90;;;2.00;;
8909;SDS011;4490;49.072;8.804;2022-08-05T09:46:22;2.55;;;2.35;;
8909;SDS011;4490;49.072;8.804;2022-08-05T09:48:53;1.95;;;1.85;;
8909;SDS011;4490;49.072;8.804;2022-08-05T09:51:38;3.10;;;2.17;;
8909;SDS011;4490;49.072;8.804;2022-08-05T09:54:06;2.65;;;2.08;;
8909;SDS011;4490;49.072;8.804;2022-08-05T09:56:33;3.45;;;2.30;;
8909;SDS011;4490;49.072;8.804;2022-08-05T10:01:31;4.60;;;2.20;;
8909;SDS011;4490;49.072;8.804;2022-08-05T10:04:10;2.50;;;2.30;;
8909;SDS011;4490;49.072;8.804;2022-08-05T10:06:41;3.55;;;2.38;;
8909;SDS011;4490;49.072;8.804;2022-08-05T10:09:19;2.60;;;2.40;;
8909;SDS011;4490;49.072;8.804;2022-08-05T10:11:45;2.53;;;2.33;;
8909;SDS011;4490;49.072;8.804;2022-08-05T10:16:50;3.35;;;2.50;;
8909;SDS011;4490;49.072;8.804;2022-08-05T10:19:16;3.33;;;2.47;;
8909;SDS011;4490;49.072;8.804;2022-08-05T10:21:42;3.33;;;2.40;;
8909;SDS011;4490;49.072;8.804;2022-08-05T10:24:10;2.58;;;2.10;;
8909;SDS011;4490;49.072;8.804;2022-08-05T10:26:40;2.63;;;2.42;;
8909;SDS011;4490;49.072;8.804;2022-08-05T10:29:07;3.88;;;2.20;;
8909;SDS011;4490;49.072;8.804;2022-08-05T10:31:33;2.50;;;2.20;;
8909;SDS011;4490;49.072;8.804;2022-08-05T10:34:00;2.47;;;2.28;;
8909;SDS011;4490;49.072;8.804;2022-08-05T10:36:26;2.30;;;2.00;;
8909;SDS011;4490;49.072;8.804;2022-08-05T10:38:58;2.53;;;2.28;;
8909;SDS011;4490;49.072;8.804;2022-08-05T10:41:32;2.08;;;1.98;;
8909;SDS011;4490;49.072;8.804;2022-08-05T10:44:02;4.82;;;2.20;;
8909;SDS011;4490;49.072;8.804;2022-08-05T10:46:44;2.20;;;2.10;;
8909;SDS011;4490;49.072;8.804;2022-08-05T10:49:14;3.50;;;2.30;;
8909;SDS011;4490;49.072;8.804;2022-08-05T10:51:48;2.55;;;2.10;;
8909;SDS011;4490;49.072;8.804;2022-08-05T10:54:15;3.42;;;2.20;;
8909;SDS011;4490;49.072;8.804;2022-08-05T10:56:45;2.60;;;2.40;;
8909;SDS011;4490;49.072;8.804;2022-08-05T10:59:16;2.95;;;2.33;;
8909;SDS011;4490;49.072;8.804;2022-08-05T11:01:43;2.22;;;2.03;;
8909;SDS011;4490;49.072;8.804;2022-08-05T11:04:12;2.45;;;2.10;;
8909;SDS011;4490;49.072;8.804;2022-08-05T11:09:28;2.47;;;2.20;;
8909;SDS011;4490;49.072;8.804;2022-08-05T11:15:03;2.10;;;1.90;;
8909;SDS011;4490;49.072;8.804;2022-08-05T11:17:30;2.60;;;2.28;;
8909;SDS011;4490;49.072;8.804;2022-08-05T11:19:58;4.00;;;2.20;;
8909;SDS011;4490;49.072;8.804;2022-08-05T11:33:26;4.07;;;2.10;;
8909;SDS011;4490;49.072;8.804;2022-08-05T11:36:12;2.20;;;2.10;;
8909;SDS011;4490;49.072;8.804;2022-08-05T11:43:53;2.40;;;2.20;;
8909;SDS011;4490;49.072;8.804;2022-08-05T11:46:52;2.88;;;2.25;;
8909;SDS011;4490;49.072;8.804;2022-08-05T11:49:19;2.75;;;2.55;;
8909;SDS011;4490;49.072;8.804;2022-08-05T11:51:47;3.60;;;2.35;;
8909;SDS011;4490;49.072;8.804;2022-08-05T11:54:24;2.53;;;2.33;;
8909;SDS011;4490;49.072;8.804;2022-08-05T11:56:55;2.53;;;2.33;;
8909;SDS011;4490;49.072;8.804;2022-08-05T12:01:52;2.60;;;2.40;;
8909;SDS011;4490;49.072;8.804;2022-08-05T12:04:19;2.70;;;2.50;;
8909;SDS011;4490;49.072;8.804;2022-08-05T12:06:45;4.07;;;2.30;;
8909;SDS011;4490;49.072;8.804;2022-08-05T12:09:11;3.08;;;2.40;;
8909;SDS011;4490;49.072;8.804;2022-08-05T12:11:42;2.53;;;2.33;;
8909;SDS011;4490;49.072;8.804;2022-08-05T12:14:09;4.07;;;2.30;;
8909;SDS011;4490;49.072;8.804;2022-08-05T12:16:35;2.67;;;2.22;;
8909;SDS011;4490;49.072;8.804;2022-08-05T12:19:04;2.47;;;2.38;;
8909;SDS011;4490;49.072;8.804;2022-08-05T12:21:31;4.70;;;2.50;;
8909;SDS011;4490;49.072;8.804;2022-08-05T12:23:59;3.65;;;2.60;;
8909;SDS011;4490;49.072;8.804;2022-08-05T12:26:41;2.47;;;2.28;;
8909;SDS011;4490;49.072;8.804;2022-08-05T12:29:22;3.35;;;2.35;;
8909;SDS011;4490;49.072;8.804;2022-08-05T12:31:50;4.03;;;2.30;;
8909;SDS011;4490;49.072;8.804;2022-08-05T12:34:19;2.60;;;2.40;;
8909;SDS011;4490;49.072;8.804;2022-08-05T12:36:52;2.53;;;2.33;;
8909;SDS011;4490;49.072;8.804;2022-08-05T12:39:22;2.92;;;2.63;;
8909;SDS011;4490;49.072;8.804;2022-08-05T12:41:49;2.58;;;2.38;;
8909;SDS011;4490;49.072;8.804;2022-08-05T12:44:15;3.05;;;2.40;;
8909;SDS011;4490;49.072;8.804;2022-08-05T12:46:43;3.08;;;2.38;;
8909;SDS011;4490;49.072;8.804;2022-08-05T12:49:16;2.50;;;2.30;;
8909;SDS011;4490;49.072;8.804;2022-08-05T12:51:46;2.42;;;2.22;;
8909;SDS011;4490;49.072;8.804;2022-08-05T12:56:52;2.97;;;2.20;;
8909;SDS011;4490;49.072;8.804;2022-08-05T12:59:23;2.30;;;2.20;;
8909;SDS011;4490;49.072;8.804;2022-08-05T13:01:56;2.40;;;2.20;;
8909;SDS011;4490;49.072;8.804;2022-08-05T13:04:30;2.92;;;2.72;;
8909;SDS011;4490;49.072;8.804;2022-08-05T13:07:05;2.63;;;2.42;;
8909;SDS011;4490;49.072;8.804;2022-08-05T13:09:37;2.40;;;2.30;;
8909;SDS011;4490;49.072;8.804;2022-08-05T13:12:08;2.58;;;2.40;;
8909;SDS011;4490;49.072;8.804;2022-08-05T13:14:36;2.55;;;2.35;;
8909;SDS011;4490;49.072;8.804;2022-08-05T13:17:36;2.40;;;2.20;;
8909;SDS011;4490;49.072;8.804;2022-08-05T13:20:12;2.60;;;2.40;;
8909;SDS011;4490;49.072;8.804;2022-08-05T13:22:49;2.85;;;2.65;;
8909;SDS011;4490;49.072;8.804;2022-08-05T13:25:16;2.63;;;2.42;;
8909;SDS011;4490;49.072;8.804;2022-08-05T13:30:14;2.90;;;2.70;;
8909;SDS011;4490;49.072;8.804;2022-08-05T13:32:41;3.45;;;2.50;;
8909;SDS011;4490;49.072;8.804;2022-08-05T13:35:11;2.90;;;2.58;;
8909;SDS011;4490;49.072;8.804;2022-08-05T13:37:38;2.95;;;2.42;;
8909;SDS011;4490;49.072;8.804;2022-08-05T13:40:04;2.95;;;2.72;;
8909;SDS011;4490;49.072;8.804;2022-08-05T13:42:30;4.70;;;3.00;;
8909;SDS011;4490;49.072;8.804;2022-08-05T13:44:55;3.50;;;2.92;;
8909;SDS011;4490;49.072;8.804;2022-08-05T13:47:21;5.13;;;3.10;;
8909;SDS011;4490;49.072;8.804;2022-08-05T13:49:48;3.20;;;2.85;;
8909;SDS011;4490;49.072;8.804;2022-08-05T13:52:19;3.42;;;2.97;;
8909;SDS011;4490;49.072;8.804;2022-08-05T13:54:47;4.57;;;3.35;;
8909;SDS011;4490;49.072;8.804;2022-08-05T13:57:13;6.15;;;3.42;;
8909;SDS011;4490;49.072;8.804;2022-08-05T13:59:39;3.72;;;3.20;;
8909;SDS011;4490;49.072;8.804;2022-08-05T14:02:06;4.32;;;3.40;;
8909;SDS011;4490;49.072;8.804;2022-08-05T14:04:34;4.38;;;3.47;;
8909;SDS011;4490;49.072;8.804;2022-08-05T14:07:21;3.35;;;3.13;;
8909;SDS011;4490;49.072;8.804;2022-08-05T14:09:49;3.50;;;3.20;;
8909;SDS011;4490;49.072;8.804;2022-08-05T14:12:14;3.88;;;3.15;;
8909;SDS011;4490;49.072;8.804;2022-08-05T14:14:40;3.80;;;3.50;;
8909;SDS011;4490;49.072;8.804;2022-08-05T14:17:07;3.30;;;3.10;;
8909;SDS011;4490;49.072;8.804;2022-08-05T14:19:33;3.28;;;2.97;;
8909;SDS011;4490;49.072;8.804;2022-08-05T14:21:58;4.35;;;2.97;;
8909;SDS011;4490;49.072;8.804;2022-08-05T14:24:24;4.53;;;3.20;;
8909;SDS011;4490;49.072;8.804;2022-08-05T14:26:50;3.35;;;3.05;;
8909;SDS011;4490;49.072;8.804;2022-08-05T14:29:16;4.68;;;3.10;;
8909;SDS011;4490;49.072;8.804;2022-08-05T14:31:41;3.30;;;3.00;;
8909;SDS011;4490;49.072;8.804;2022-08-05T14:34:08;4.38;;;3.30;;
8909;SDS011;4490;49.072;8.804;2022-08-05T14:36:34;4.78;;;3.30;;
8909;SDS011;4490;49.072;8.804;2022-08-05T14:38:59;3.55;;;3.25;;
8909;SDS011;4490;49.072;8.804;2022-08-05T14:41:25;3.90;;;3.33;;
8909;SDS011;4490;49.072;8.804;2022-08-05T14:43:53;3.60;;;3.30;;
8909;SDS011;4490;49.072;8.804;2022-08-05T14:46:20;4.30;;;3.03;;
8909;SDS011;4490;49.072;8.804;2022-08-05T14:48:47;3.33;;;3.13;;
8909;SDS011;4490;49.072;8.804;2022-08-05T14:51:12;4.45;;;3.08;;
8909;SDS011;4490;49.072;8.804;2022-08-05T14:53:38;3.58;;;3.28;;
8909;SDS011;4490;49.072;8.804;2022-08-05T14:56:04;3.40;;;3.10;;
8909;SDS011;4490;49.072;8.804;2022-08-05T14:58:29;3.63;;;3.30;;
8909;SDS011;4490;49.072;8.804;2022-08-05T15:00:55;4.55;;;3.00;;
8909;SDS011;4490;49.072;8.804;2022-08-05T15:03:21;3.60;;;3.30;;
8909;SDS011;4490;49.072;8.804;2022-08-05T15:05:46;3.08;;;2.88;;
8909;SDS011;4490;49.072;8.804;2022-08-05T15:08:12;3.78;;;3.30;;
8909;SDS011;4490;49.072;8.804;2022-08-05T15:10:37;4.32;;;2.95;;
8909;SDS011;4490;49.072;8.804;2022-08-05T15:13:05;3.47;;;3.17;;
8909;SDS011;4490;49.072;8.804;2022-08-05T15:15:31;3.10;;;2.80;;
8909;SDS011;4490;49.072;8.804;2022-08-05T15:17:56;2.90;;;2.70;;
8909;SDS011;4490;49.072;8.804;2022-08-05T15:20:22;7.13;;;3.08;;
8909;SDS011;4490;49.072;8.804;2022-08-05T15:22:49;3.20;;;2.90;;
8909;SDS011;4490;49.072;8.804;2022-08-05T15:25:15;3.38;;;3.08;;
8909;SDS011;4490;49.072;8.804;2022-08-05T15:27:40;3.28;;;2.97;;
8909;SDS011;4490;49.072;8.804;2022-08-05T15:30:09;3.40;;;3.03;;
8909;SDS011;4490;49.072;8.804;2022-08-05T15:32:35;2.97;;;2.75;;
8909;SDS011;4490;49.072;8.804;2022-08-05T15:35:01;2.90;;;2.70;;
8909;SDS011;4490;49.072;8.804;2022-08-05T15:37:27;3.33;;;2.88;;
8909;SDS011;4490;49.072;8.804;2022-08-05T15:39:53;3.28;;;2.97;;
8909;SDS011;4490;49.072;8.804;2022-08-05T15:42:21;4.28;;;2.85;;
8909;SDS011;4490;49.072;8.804;2022-08-05T15:44:48;3.42;;;2.97;;
8909;SDS011;4490;49.072;8.804;2022-08-05T15:47:14;3.97;;;2.80;;
8909;SDS011;4490;49.072;8.804;2022-08-05T15:49:40;2.60;;;2.40;;
8909;SDS011;4490;49.072;8.804;2022-08-05T15:52:06;4.22;;;2.95;;
8909;SDS011;4490;49.072;8.804;2022-08-05T15:54:32;4.30;;;2.85;;
8909;SDS011;4490;49.072;8.804;2022-08-05T15:56:58;5.35;;;2.80;;
8909;SDS011;4490;49.072;8.804;2022-08-05T15:59:24;3.20;;;2.90;;
8909;SDS011;4490;49.072;8.804;2022-08-05T16:01:50;3.15;;;2.95;;
8909;SDS011;4490;49.072;8.804;2022-08-05T16:04:16;3.22;;;2.95;;